Flight Track Log - Related Links

Times and Time Zones

All times are in EDT time to prevent confusion due to time zone crossing. See the N6711G flight status page for this flight to view local times or setup timezone preferences in your user account.

Time Position Orientation Groundspeed Altitude Reporting Facility
EDT Latitude Longitude Course Direction KTS MPH feet Rate Location/Type
Thu 08:34:00 PM 32.3421 -80.9513 300° West  Level FlightAware Approximate
Thu 08:35:00 PM 32.3637 -80.9955 300° West  Level FlightAware Approximate
Thu 08:36:00 PM 32.3853 -81.0398 300° West  Level FlightAware Approximate
Thu 08:37:00 PM 32.4068 -81.0842 300° West  Level FlightAware Approximate
Thu 08:38:00 PM 32.4284 -81.1285 300° West  Level FlightAware Approximate
Thu 08:39:00 PM 32.4500 -81.1729 300° West  Level FlightAware Approximate
Thu 08:40:00 PM 32.4715 -81.2172 300° West  Level FlightAware Approximate
Thu 08:41:00 PM 32.4930 -81.2616 300° West  Level FlightAware Approximate
Thu 08:42:00 PM 32.5145 -81.3061 300° West  Level FlightAware Approximate
Thu 08:43:00 PM 32.5360 -81.3505 300° West  Level FlightAware Approximate
Thu 08:44:00 PM 32.5574 -81.3950 300° West  Level FlightAware Approximate
Thu 08:45:00 PM 32.5789 -81.4395 300° West  Level FlightAware Approximate
Thu 08:45:52 PM 32.3992 -81.3450 297° West 141 162 5,900  Level Jacksonville Center
Thu 08:46:00 PM 32.6003 -81.4840 297° West  Level FlightAware Approximate
Thu 08:46:52 PM 32.4186 -81.3839 301° West 141 162 5,900  Level Jacksonville Center
Thu 08:47:00 PM 32.6202 -81.5295 297° West  Level FlightAware Approximate
Thu 08:47:52 PM 32.4336 -81.4206 296° West 141 162 6,000  Level Jacksonville Center
Thu 08:48:00 PM 32.6400 -81.5750 297° West  Level FlightAware Approximate
Thu 08:48:52 PM 32.4528 -81.4597 300° West 136 157 6,000  Level Jacksonville Center
Thu 08:49:00 PM 32.6599 -81.6206 297° West  Level FlightAware Approximate
Thu 08:49:52 PM 32.4761 -81.5011 304° West 136 157 6,000  Level Jacksonville Center
Thu 08:50:00 PM 32.6797 -81.6662 297° West  Level FlightAware Approximate
Thu 08:50:52 PM 32.4975 -81.5403 303° West 141 162 6,000  Level Jacksonville Center
Thu 08:51:00 PM 32.6995 -81.7118 297° West  Level FlightAware Approximate
Thu 08:51:52 PM 32.5167 -81.5794 300° West 141 162 6,000  Level Jacksonville Center
Thu 08:52:52 PM 32.5400 -81.6233 302° West 141 162 6,000  Level Jacksonville Center
Thu 08:53:52 PM 32.5614 -81.6603 304° West 136 157 6,000  Level Jacksonville Center
Thu 08:55:44 PM 32.5994 -81.7311 303° West 154 177 6,000  Level Atlanta Center
Thu 08:56:44 PM 32.6192 -81.7725 300° West 154 177 6,000  Level Atlanta Center
Thu 08:57:44 PM 32.6406 -81.8114 303° West 148 170 6,000  Level Atlanta Center
Thu 08:58:44 PM 32.6603 -81.8528 300° West 143 165 6,000  Level Atlanta Center
Thu 08:59:44 PM 32.6817 -81.8917 303° West 143 165 6,000  Level Atlanta Center
Thu 09:00:44 PM 32.7011 -81.9333 299° West 138 159 6,000  Level Atlanta Center
Thu 09:01:44 PM 32.7206 -81.9722 301° West 138 159 6,000  Level Atlanta Center
Thu 09:02:44 PM 32.7422 -82.0114 303° West 138 159 6,000  Level Atlanta Center
Thu 09:03:44 PM 32.7636 -82.0503 303° West 138 159 6,000  Level Atlanta Center
Thu 09:04:44 PM 32.7831 -82.0919 299° West 138 159 6,000  Level Atlanta Center
Thu 09:05:44 PM 32.8025 -82.1286 302° West 138 159 6,000  Level Atlanta Center
Thu 09:06:44 PM 32.8239 -82.1675 303° West 138 159 6,000  Level Atlanta Center
Thu 09:07:44 PM 32.8456 -82.2142 299° West 138 159 6,000  Level Atlanta Center
Thu 09:08:44 PM 32.8669 -82.2508 305° West 138 159 6,000  Level Atlanta Center
Thu 09:09:44 PM 32.8864 -82.2925 299° West 138 159 6,000  Level Atlanta Center
Thu 09:10:44 PM 32.9078 -82.3292 305° West 138 159 6,000  Level Atlanta Center
Thu 09:11:44 PM 32.9272 -82.3683 301° West 138 159 6,000  Level Atlanta Center
Thu 09:12:44 PM 32.9464 -82.4100 299° West 138 159 6,000  Level Atlanta Center
Thu 09:13:44 PM 32.9658 -82.4469 302° West 138 159 6,000  Level Atlanta Center
Thu 09:15:00 PM 32.9898 -82.4972 300° West  Level FlightAware Approximate
Thu 09:17:29 PM 33.0500 -82.6000 300° West 143 165 6,000  Level Atlanta TRACON
Thu 09:18:29 PM 33.0667 -82.6333 301° West 142 163 6,000  Level Atlanta TRACON
Thu 09:19:23 PM 33.0833 -82.6667 301° West 141 162 6,000  Level Atlanta TRACON
Thu 09:20:17 PM 33.1000 -82.7000 301° West 142 163 6,000  Level Atlanta TRACON
Thu 09:21:23 PM 33.1167 -82.7500 292° West 138 159 6,000  Level Atlanta TRACON
Thu 09:22:00 PM 33.1219 -82.7757 300° West  Level FlightAware Approximate
Thu 09:22:23 PM 33.1333 -82.8000 292° West 145 167 6,000  Level Atlanta TRACON
Thu 09:23:29 PM 33.1667 -82.8333 320° Northwest 140 161 6,000  Level Atlanta TRACON
Thu 09:24:23 PM 33.1833 -82.8667 301° West 142 163 6,000 -110 Level Atlanta TRACON
Thu 09:25:18 PM 33.2000 -82.9000 301° West 146 168 5,800 -261 Descending Atlanta TRACON
Thu 09:26:18 PM 33.2167 -82.9500 292° West 156 180 5,500 -350 Descending Atlanta TRACON
Thu 09:27:18 PM 33.2500 -83.0000 309° West 162 186 5,100 -350 Descending Atlanta TRACON
Thu 09:28:18 PM 33.2667 -83.0500 292° West 162 186 4,800 -350 Descending Atlanta TRACON
Thu 09:29:18 PM 33.2833 -83.1000 292° West 161 185 4,400 -400 Descending Atlanta TRACON
Thu 09:30:18 PM 33.3000 -83.1500 292° West 163 188 4,000 -200 Descending Atlanta TRACON
Thu 09:31:18 PM 33.3000 -83.2000 270° West 152 175 4,000  Level Atlanta TRACON
Thu 09:32:18 PM 33.3167 -83.2500 292° West 148 170 4,000 48 Level Atlanta TRACON
Thu 09:33:24 PM 33.3167 -83.3000 270° West 150 173 4,100 48 Climbing Atlanta TRACON
Thu 09:34:24 PM 33.3333 -83.3500 292° West 149 171 4,100 -53 Level Atlanta TRACON
Thu 09:35:18 PM 33.3333 -83.3833 270° West 151 174 4,000  Descending Atlanta TRACON
Thu 09:36:24 PM 33.3500 -83.4333 292° West 151 174 4,100 50 Climbing Atlanta TRACON
Thu 09:37:18 PM 33.3500 -83.4833 270° West 152 175 4,100  Level Atlanta TRACON
Thu 09:38:12 PM 33.3667 -83.5333 292° West 153 176 4,100  Level Atlanta TRACON
Thu 09:39:18 PM 33.3833 -83.5833 292° West 154 177 4,100  Level Atlanta TRACON
Thu 09:40:12 PM 33.3833 -83.6333 270° West 155 178 4,100  Level Atlanta TRACON
Thu 09:41:12 PM 33.4000 -83.6833 292° West 155 178 4,100  Level Atlanta TRACON
Thu 09:42:12 PM 33.4333 -83.7000 337° Northwest 170 196 4,100  Level Atlanta TRACON
Thu 09:43:18 PM 33.4833 -83.7167 344° North 169 194 4,100 -48 Level Atlanta TRACON
Thu 09:44:18 PM 33.5333 -83.7167 360° North 175 201 4,000  Descending Atlanta TRACON
Thu 09:45:24 PM 33.5833 -83.7333 344° North 168 193 4,100 48 Climbing Atlanta TRACON
Thu 09:46:24 PM 33.6333 -83.7500 344° North 166 191 4,100  Level Atlanta TRACON
Thu 09:47:18 PM 33.6667 -83.7667 337° Northwest 162 186 4,100  Level Atlanta TRACON
Thu 09:48:12 PM 33.7000 -83.8000 320° Northwest 159 183 4,100  Level Atlanta TRACON
Thu 09:49:12 PM 33.7333 -83.8333 320° Northwest 156 180 4,100  Level Atlanta TRACON
Thu 09:50:12 PM 33.7667 -83.8667 320° Northwest 155 178 4,100  Level Atlanta TRACON
Thu 09:51:07 PM 33.8000 -83.9000 320° Northwest 158 182 4,100  Level Atlanta TRACON
Thu 09:52:12 PM 33.8333 -83.9333 320° Northwest 156 180 4,100  Level Atlanta TRACON
Thu 09:53:12 PM 33.8667 -83.9667 320° Northwest 166 191 4,100 -250 Level Atlanta TRACON
Thu 09:56:12 PM 33.9167 -84.1000 294° West 167 192 3,100 -375 Descending Atlanta TRACON
Thu 09:57:12 PM 33.9333 -84.1667 287° West 163 188 2,600 -579 Descending Atlanta TRACON
Thu 09:58:06 PM 33.9333 -84.2000 270° West 173 199 2,000 -300 Descending Atlanta TRACON
Thu 09:59:12 PM 33.9167 -84.2500 248° West 117 135 2,000 -50 Level Atlanta TRACON
Thu 10:00:06 PM 33.9167 -84.2667 270° West 107 123 1,900 -350 Descending Atlanta TRACON
Thu 10:01:12 PM 33.9000 -84.3000 239° Southwest 85 98 1,300 -545 Descending Atlanta TRACON
Thu 10:03:00 PM 33.8756 -84.3020 259° West  Level Estimated
Thu 10:10:00 PM 33.8756 -84.3020 259° West  Level Estimated

Login

Don't have an account? Register now (free) for customized features, flight alerts, and more!